sensor_id;sensor_type;location;lat;lon;timestamp;pressure;altitude;pressure_sealevel;temperature;humidity
20656;BME280;10487;53.320;8.672;2022-12-08T00:01:13;100427.00;;;0.46;64.97
20656;BME280;10487;53.320;8.672;2022-12-08T00:04:16;100425.28;;;0.45;65.03
20656;BME280;10487;53.320;8.672;2022-12-08T00:07:17;100416.56;;;0.45;65.26
20656;BME280;10487;53.320;8.672;2022-12-08T00:10:37;100414.00;;;0.43;64.99
20656;BME280;10487;53.320;8.672;2022-12-08T00:13:49;100421.06;;;0.41;65.13
20656;BME280;10487;53.320;8.672;2022-12-08T00:16:51;100414.97;;;0.41;65.20
20656;BME280;10487;53.320;8.672;2022-12-08T00:19:53;100415.88;;;0.40;65.15
20656;BME280;10487;53.320;8.672;2022-12-08T00:22:55;100401.94;;;0.38;65.15
20656;BME280;10487;53.320;8.672;2022-12-08T00:26:01;100397.59;;;0.37;65.30
20656;BME280;10487;53.320;8.672;2022-12-08T00:29:03;100394.25;;;0.33;65.14
20656;BME280;10487;53.320;8.672;2022-12-08T00:32:05;100405.72;;;0.31;65.13
20656;BME280;10487;53.320;8.672;2022-12-08T00:35:07;100393.56;;;0.28;65.43
20656;BME280;10487;53.320;8.672;2022-12-08T00:38:09;100396.22;;;0.27;65.16
20656;BME280;10487;53.320;8.672;2022-12-08T00:41:15;100400.63;;;0.26;65.49
20656;BME280;10487;53.320;8.672;2022-12-08T00:44:18;100394.56;;;0.24;65.52
20656;BME280;10487;53.320;8.672;2022-12-08T00:47:19;100393.78;;;0.22;65.38
20656;BME280;10487;53.320;8.672;2022-12-08T00:50:25;100390.28;;;0.21;65.42
20656;BME280;10487;53.320;8.672;2022-12-08T00:53:26;100384.16;;;0.22;65.34
20656;BME280;10487;53.320;8.672;2022-12-08T00:56:28;100386.75;;;0.22;65.19
20656;BME280;10487;53.320;8.672;2022-12-08T00:59:30;100391.16;;;0.22;65.20
20656;BME280;10487;53.320;8.672;2022-12-08T01:02:32;100387.63;;;0.23;65.38
20656;BME280;10487;53.320;8.672;2022-12-08T01:05:34;100379.75;;;0.23;65.49
20656;BME280;10487;53.320;8.672;2022-12-08T01:08:36;100375.34;;;0.23;65.50
20656;BME280;10487;53.320;8.672;2022-12-08T01:11:38;100387.56;;;0.24;65.38
20656;BME280;10487;53.320;8.672;2022-12-08T01:14:39;100383.97;;;0.27;65.37
20656;BME280;10487;53.320;8.672;2022-12-08T01:17:41;100388.31;;;0.28;65.59
20656;BME280;10487;53.320;8.672;2022-12-08T01:20:43;100385.63;;;0.30;65.56
20656;BME280;10487;53.320;8.672;2022-12-08T01:23:44;100382.13;;;0.29;65.20
20656;BME280;10487;53.320;8.672;2022-12-08T01:26:48;100376.09;;;0.27;65.24
20656;BME280;10487;53.320;8.672;2022-12-08T01:29:50;100371.72;;;0.28;65.29
20656;BME280;10487;53.320;8.672;2022-12-08T01:32:51;100378.66;;;0.29;65.40
20656;BME280;10487;53.320;8.672;2022-12-08T01:35:53;100378.66;;;0.29;65.26
20656;BME280;10487;53.320;8.672;2022-12-08T01:38:58;100381.28;;;0.29;65.56
20656;BME280;10487;53.320;8.672;2022-12-08T01:41:59;100373.47;;;0.27;65.51
20656;BME280;10487;53.320;8.672;2022-12-08T01:45:06;100375.22;;;0.27;65.45
20656;BME280;10487;53.320;8.672;2022-12-08T01:48:12;100373.47;;;0.27;65.29
20656;BME280;10487;53.320;8.672;2022-12-08T01:51:16;100381.34;;;0.27;65.28
20656;BME280;10487;53.320;8.672;2022-12-08T01:54:18;100376.97;;;0.28;65.53
20656;BME280;10487;53.320;8.672;2022-12-08T01:57:40;100380.47;;;0.27;65.27
20656;BME280;10487;53.320;8.672;2022-12-08T02:00:43;100385.72;;;0.27;65.62
20656;BME280;10487;53.320;8.672;2022-12-08T02:04:00;100381.28;;;0.29;65.50
20656;BME280;10487;53.320;8.672;2022-12-08T02:07:03;100373.41;;;0.29;65.34
20656;BME280;10487;53.320;8.672;2022-12-08T02:10:11;100371.63;;;0.29;65.56
20656;BME280;10487;53.320;8.672;2022-12-08T02:13:16;100371.63;;;0.29;65.43
20656;BME280;10487;53.320;8.672;2022-12-08T02:36:31;100348.81;;;0.31;65.53
20656;BME280;10487;53.320;8.672;2022-12-08T02:43:28;100340.91;;;0.33;65.68
20656;BME280;10487;53.320;8.672;2022-12-08T02:46:39;100336.56;;;0.32;65.29
20656;BME280;10487;53.320;8.672;2022-12-08T02:49:42;100338.28;;;0.33;65.52
20656;BME280;10487;53.320;8.672;2022-12-08T02:52:46;100333.03;;;0.33;65.67
20656;BME280;10487;53.320;8.672;2022-12-08T03:12:40;100322.75;;;0.27;65.56
20656;BME280;10487;53.320;8.672;2022-12-08T03:15:21;100311.38;;;0.26;65.57
20656;BME280;10487;53.320;8.672;2022-12-08T03:18:27;100322.84;;;0.23;65.40
20656;BME280;10487;53.320;8.672;2022-12-08T03:21:32;100308.94;;;0.21;65.29
20656;BME280;10487;53.320;8.672;2022-12-08T03:24:37;100301.16;;;0.20;65.24
20656;BME280;10487;53.320;8.672;2022-12-08T03:27:40;100313.41;;;0.19;65.47
20656;BME280;10487;53.320;8.672;2022-12-08T03:30:43;100307.38;;;0.17;65.74
20656;BME280;10487;53.320;8.672;2022-12-08T03:33:50;100301.19;;;0.18;65.64
20656;BME280;10487;53.320;8.672;2022-12-08T03:36:53;100303.75;;;0.20;65.68
20656;BME280;10487;53.320;8.672;2022-12-08T03:39:55;100299.38;;;0.20;65.36
20656;BME280;10487;53.320;8.672;2022-12-08T03:42:57;100303.81;;;0.18;65.73
20656;BME280;10487;53.320;8.672;2022-12-08T03:45:58;100301.19;;;0.18;65.42
20656;BME280;10487;53.320;8.672;2022-12-08T03:49:00;100283.69;;;0.19;65.63
20656;BME280;10487;53.320;8.672;2022-12-08T03:52:02;100281.91;;;0.19;65.45
20656;BME280;10487;53.320;8.672;2022-12-08T03:55:04;100276.59;;;0.21;65.74
20656;BME280;10487;53.320;8.672;2022-12-08T03:58:05;100261.78;;;0.20;65.68
20656;BME280;10487;53.320;8.672;2022-12-08T04:01:07;100256.47;;;0.21;65.70
20656;BME280;10487;53.320;8.672;2022-12-08T04:04:09;100257.31;;;0.22;65.42
20656;BME280;10487;53.320;8.672;2022-12-08T04:07:10;100243.31;;;0.23;65.43
20656;BME280;10487;53.320;8.672;2022-12-08T04:10:12;100247.72;;;0.21;65.54
20656;BME280;10487;53.320;8.672;2022-12-08T04:13:13;100241.69;;;0.19;65.63
20656;BME280;10487;53.320;8.672;2022-12-08T04:16:20;100244.38;;;0.17;65.44
20656;BME280;10487;53.320;8.672;2022-12-08T04:19:22;100250.50;;;0.18;65.66
20656;BME280;10487;53.320;8.672;2022-12-08T04:22:24;100246.94;;;0.19;65.71
20656;BME280;10487;53.320;8.672;2022-12-08T04:25:26;100251.22;;;0.21;65.69
20656;BME280;10487;53.320;8.672;2022-12-08T04:28:28;100246.91;;;0.20;65.38
20656;BME280;10487;53.320;8.672;2022-12-08T04:31:32;100245.97;;;0.21;65.58
20656;BME280;10487;53.320;8.672;2022-12-08T04:34:34;100239.81;;;0.22;65.69
20656;BME280;10487;53.320;8.672;2022-12-08T04:37:35;100256.34;;;0.24;65.41
20656;BME280;10487;53.320;8.672;2022-12-08T04:40:37;100244.97;;;0.26;65.73
20656;BME280;10487;53.320;8.672;2022-12-08T04:43:39;100240.59;;;0.24;65.45
20656;BME280;10487;53.320;8.672;2022-12-08T04:46:41;100229.25;;;0.24;65.52
20656;BME280;10487;53.320;8.672;2022-12-08T04:49:44;100227.50;;;0.24;65.53
20656;BME280;10487;53.320;8.672;2022-12-08T04:52:45;100232.75;;;0.24;65.44
20656;BME280;10487;53.320;8.672;2022-12-08T04:55:47;100220.47;;;0.25;65.58
20656;BME280;10487;53.320;8.672;2022-12-08T04:58:49;100220.47;;;0.25;65.57
20656;BME280;10487;53.320;8.672;2022-12-08T05:01:51;100225.66;;;0.27;65.73
20656;BME280;10487;53.320;8.672;2022-12-08T05:04:53;100242.19;;;0.29;65.62
20656;BME280;10487;53.320;8.672;2022-12-08T05:07:55;100230.78;;;0.30;65.80
20656;BME280;10487;53.320;8.672;2022-12-08T05:11:08;100230.72;;;0.31;65.66
20656;BME280;10487;53.320;8.672;2022-12-08T05:14:11;100234.19;;;0.32;65.58
20656;BME280;10487;53.320;8.672;2022-12-08T05:17:17;100219.38;;;0.31;65.47
20656;BME280;10487;53.320;8.672;2022-12-08T05:20:19;100235.13;;;0.31;65.48
20656;BME280;10487;53.320;8.672;2022-12-08T05:23:20;100222.91;;;0.30;65.46
20656;BME280;10487;53.320;8.672;2022-12-08T05:26:22;100222.00;;;0.31;65.45
20656;BME280;10487;53.320;8.672;2022-12-08T05:29:23;100221.06;;;0.32;65.75
20656;BME280;10487;53.320;8.672;2022-12-08T05:32:25;100231.53;;;0.33;65.73
20656;BME280;10487;53.320;8.672;2022-12-08T05:35:27;100226.22;;;0.35;65.70
20656;BME280;10487;53.320;8.672;2022-12-08T05:38:28;100235.81;;;0.36;65.57
20656;BME280;10487;53.320;8.672;2022-12-08T05:41:30;100233.19;;;0.36;65.58
20656;BME280;10487;53.320;8.672;2022-12-08T05:44:31;100234.88;;;0.37;65.67
20656;BME280;10487;53.320;8.672;2022-12-08T05:47:33;100227.06;;;0.57;65.42
20656;BME280;10487;53.320;8.672;2022-12-08T05:50:36;100231.41;;;0.58;65.50
20656;BME280;10487;53.320;8.672;2022-12-08T05:53:38;100225.22;;;0.59;65.55
20656;BME280;10487;53.320;8.672;2022-12-08T05:56:39;100223.38;;;0.61;65.44
20656;BME280;10487;53.320;8.672;2022-12-08T05:59:41;100214.72;;;0.59;65.59
20656;BME280;10487;53.320;8.672;2022-12-08T06:02:42;100216.56;;;0.57;65.51
20656;BME280;10487;53.320;8.672;2022-12-08T06:05:45;100220.94;;;0.56;65.41
20656;BME280;10487;53.320;8.672;2022-12-08T06:08:47;100221.69;;;0.60;65.92
20656;BME280;10487;53.320;8.672;2022-12-08T06:11:49;100224.88;;;0.88;66.11
20656;BME280;10487;53.320;8.672;2022-12-08T06:14:51;100205.47;;;0.92;65.55
20656;BME280;10487;53.320;8.672;2022-12-08T06:17:52;100212.41;;;0.93;65.44
20656;BME280;10487;53.320;8.672;2022-12-08T06:21:04;100209.00;;;0.91;65.63
20656;BME280;10487;53.320;8.672;2022-12-08T06:24:06;100213.47;;;0.89;65.63
20656;BME280;10487;53.320;8.672;2022-12-08T06:27:07;100206.50;;;0.88;65.24
20656;BME280;10487;53.320;8.672;2022-12-08T06:30:09;100213.47;;;0.89;65.58
20656;BME280;10487;53.320;8.672;2022-12-08T06:33:11;100206.50;;;0.88;65.31
20656;BME280;10487;53.320;8.672;2022-12-08T06:36:13;100206.47;;;0.90;65.66
20656;BME280;10487;53.320;8.672;2022-12-08T06:39:15;100214.25;;;0.91;65.55
20656;BME280;10487;53.320;8.672;2022-12-08T06:42:17;100216.88;;;0.91;65.45
20656;BME280;10487;53.320;8.672;2022-12-08T06:45:39;100210.78;;;0.91;65.41
20656;BME280;10487;53.320;8.672;2022-12-08T06:48:41;100208.31;;;0.88;65.12
20656;BME280;10487;53.320;8.672;2022-12-08T06:51:42;100221.44;;;0.88;65.39
20656;BME280;10487;53.320;8.672;2022-12-08T06:54:44;100226.69;;;0.88;65.20
20656;BME280;10487;53.320;8.672;2022-12-08T06:57:46;100226.81;;;0.84;65.33
20656;BME280;10487;53.320;8.672;2022-12-08T07:00:47;100238.19;;;0.83;65.07
20656;BME280;10487;53.320;8.672;2022-12-08T07:03:49;100240.09;;;0.80;65.05
20656;BME280;10487;53.320;8.672;2022-12-08T07:06:50;100240.16;;;0.78;65.31
20656;BME280;10487;53.320;8.672;2022-12-08T07:09:52;100242.94;;;0.75;65.47
20656;BME280;10487;53.320;8.672;2022-12-08T07:12:54;100246.66;;;0.92;65.12
20656;BME280;10487;53.320;8.672;2022-12-08T07:15:55;100251.16;;;0.88;65.24
20656;BME280;10487;53.320;8.672;2022-12-08T07:18:58;100255.63;;;0.86;65.29
20656;BME280;10487;53.320;8.672;2022-12-08T07:22:00;100252.31;;;0.81;65.21
20656;BME280;10487;53.320;8.672;2022-12-08T07:25:01;100260.34;;;0.78;65.38
20656;BME280;10487;53.320;8.672;2022-12-08T07:28:07;100263.09;;;0.75;65.33
20656;BME280;10487;53.320;8.672;2022-12-08T07:31:29;100255.41;;;0.70;65.32
20656;BME280;10487;53.320;8.672;2022-12-08T07:34:30;100266.88;;;0.68;65.39
20656;BME280;10487;53.320;8.672;2022-12-08T07:37:33;100266.06;;;0.66;65.27
20656;BME280;10487;53.320;8.672;2022-12-08T07:40:35;100276.72;;;0.63;65.52
20656;BME280;10487;53.320;8.672;2022-12-08T07:43:39;100255.88;;;0.58;65.34
20656;BME280;10487;53.320;8.672;2022-12-08T07:46:40;100266.44;;;0.57;65.40
20656;BME280;10487;53.320;8.672;2022-12-08T07:49:42;100263.88;;;0.55;65.64
20656;BME280;10487;53.320;8.672;2022-12-08T07:52:44;100257.00;;;0.53;65.64
20656;BME280;10487;53.320;8.672;2022-12-08T07:55:45;100251.84;;;0.50;65.31
20656;BME280;10487;53.320;8.672;2022-12-08T07:58:47;100256.84;;;0.77;66.73
20656;BME280;10487;53.320;8.672;2022-12-08T08:01:49;100263.28;;;0.92;66.15
20656;BME280;10487;53.320;8.672;2022-12-08T08:05:11;100270.38;;;0.90;65.64
20656;BME280;10487;53.320;8.672;2022-12-08T08:08:13;100257.44;;;0.84;65.58
20656;BME280;10487;53.320;8.672;2022-12-08T08:11:15;100257.72;;;0.78;65.44
20656;BME280;10487;53.320;8.672;2022-12-08T08:14:22;100261.44;;;0.72;65.57
20656;BME280;10487;53.320;8.672;2022-12-08T08:17:23;100259.97;;;0.65;65.54
20656;BME280;10487;53.320;8.672;2022-12-08T08:20:25;100271.50;;;0.61;65.38
20656;BME280;10487;53.320;8.672;2022-12-08T08:23:27;100262.94;;;0.56;65.73
20656;BME280;10487;53.320;8.672;2022-12-08T08:26:28;100265.75;;;0.52;65.32
20656;BME280;10487;53.320;8.672;2022-12-08T08:29:30;100272.94;;;0.48;65.49
20656;BME280;10487;53.320;8.672;2022-12-08T08:32:33;100281.88;;;0.43;65.25
20656;BME280;10487;53.320;8.672;2022-12-08T08:35:34;100282.19;;;0.35;65.41
20656;BME280;10487;53.320;8.672;2022-12-08T08:38:36;100288.44;;;0.31;65.60
20656;BME280;10487;53.320;8.672;2022-12-08T08:41:40;100283.38;;;0.27;65.82
20656;BME280;10487;53.320;8.672;2022-12-08T08:44:42;100291.38;;;0.23;65.58
20656;BME280;10487;53.320;8.672;2022-12-08T08:47:44;100292.34;;;0.21;65.46
20656;BME280;10487;53.320;8.672;2022-12-08T08:50:45;100288.94;;;0.19;65.55
20656;BME280;10487;53.320;8.672;2022-12-08T08:53:47;100274.16;;;0.16;65.59
20656;BME280;10487;53.320;8.672;2022-12-08T08:56:48;100272.47;;;0.15;65.86
20656;BME280;10487;53.320;8.672;2022-12-08T08:59:50;100271.59;;;0.15;65.57
20656;BME280;10487;53.320;8.672;2022-12-08T09:02:52;100282.97;;;0.15;65.65
20656;BME280;10487;53.320;8.672;2022-12-08T09:05:54;100283.84;;;0.14;65.62
20656;BME280;10487;53.320;8.672;2022-12-08T09:08:56;100287.34;;;0.15;65.48
20656;BME280;10487;53.320;8.672;2022-12-08T09:11:58;100284.78;;;0.13;65.42
20656;BME280;10487;53.320;8.672;2022-12-08T09:14:59;100283.97;;;0.11;65.69
20656;BME280;10487;53.320;8.672;2022-12-08T09:18:01;100286.59;;;0.11;65.63
20656;BME280;10487;53.320;8.672;2022-12-08T09:21:07;100279.59;;;0.12;65.55
20656;BME280;10487;53.320;8.672;2022-12-08T09:24:10;100280.34;;;0.15;65.71
20656;BME280;10487;53.320;8.672;2022-12-08T09:27:16;100299.19;;;0.25;66.04
20656;BME280;10487;53.320;8.672;2022-12-08T09:30:17;100304.75;;;0.39;65.99
20656;BME280;10487;53.320;8.672;2022-12-08T09:33:19;100311.06;;;0.57;66.08
20656;BME280;10487;53.320;8.672;2022-12-08T09:36:20;100309.09;;;0.83;66.43
20656;BME280;10487;53.320;8.672;2022-12-08T09:39:22;100306.81;;;1.60;67.56
20656;BME280;10487;53.320;8.672;2022-12-08T09:42:44;100309.25;;;2.59;68.11
20656;BME280;10487;53.320;8.672;2022-12-08T09:45:48;100306.44;;;3.33;67.37
20656;BME280;10487;53.320;8.672;2022-12-08T09:48:53;100308.13;;;3.52;66.20
20656;BME280;10487;53.320;8.672;2022-12-08T09:51:56;100310.38;;;3.42;65.45
20656;BME280;10487;53.320;8.672;2022-12-08T09:54:59;100302.59;;;3.22;65.11
20656;BME280;10487;53.320;8.672;2022-12-08T09:58:06;100309.78;;;3.01;65.52
20656;BME280;10487;53.320;8.672;2022-12-08T10:01:13;100298.66;;;2.77;65.19
20656;BME280;10487;53.320;8.672;2022-12-08T10:04:24;100302.47;;;2.53;65.07
20656;BME280;10487;53.320;8.672;2022-12-08T10:07:40;100302.56;;;2.33;65.20
20656;BME280;10487;53.320;8.672;2022-12-08T10:10:56;100288.69;;;2.11;65.37
20656;BME280;10487;53.320;8.672;2022-12-08T10:14:48;100287.81;;;1.92;65.57
20656;BME280;10487;53.320;8.672;2022-12-08T10:17:53;100291.03;;;1.78;65.45
20656;BME280;10487;53.320;8.672;2022-12-08T10:21:00;100286.34;;;1.66;65.78
20656;BME280;10487;53.320;8.672;2022-12-08T10:24:45;100299.94;;;1.56;65.68
20656;BME280;10487;53.320;8.672;2022-12-08T10:27:53;100302.00;;;1.49;65.83
20656;BME280;10487;53.320;8.672;2022-12-08T10:30:55;100296.22;;;1.41;65.49
20656;BME280;10487;53.320;8.672;2022-12-08T10:33:59;100288.53;;;1.36;65.59
20656;BME280;10487;53.320;8.672;2022-12-08T10:37:08;100294.78;;;1.34;65.64
20656;BME280;10487;53.320;8.672;2022-12-08T10:43:20;100303.09;;;1.23;65.44
20656;BME280;10487;53.320;8.672;2022-12-08T10:46:23;100295.34;;;1.20;65.65
20656;BME280;10487;53.320;8.672;2022-12-08T10:49:29;100302.50;;;1.17;65.55
20656;BME280;10487;53.320;8.672;2022-12-08T10:52:37;100303.50;;;1.14;65.84
20656;BME280;10487;53.320;8.672;2022-12-08T10:55:50;100308.75;;;1.14;65.68
20656;BME280;10487;53.320;8.672;2022-12-08T10:59:12;100302.72;;;1.12;65.78
20656;BME280;10487;53.320;8.672;2022-12-08T11:02:18;100304.47;;;1.12;65.49
20656;BME280;10487;53.320;8.672;2022-12-08T11:05:22;100313.16;;;1.14;65.84
20656;BME280;10487;53.320;8.672;2022-12-08T11:08:27;100307.03;;;1.13;65.40
20656;BME280;10487;53.320;8.672;2022-12-08T11:17:43;100304.69;;;1.07;65.75
20656;BME280;10487;53.320;8.672;2022-12-08T11:21:00;100300.28;;;1.08;65.70
20656;BME280;10487;53.320;8.672;2022-12-08T11:24:19;100296.78;;;1.07;65.59
20656;BME280;10487;53.320;8.672;2022-12-08T11:27:22;100294.16;;;1.07;65.40
20656;BME280;10487;53.320;8.672;2022-12-08T11:30:27;100299.31;;;1.10;65.59
20656;BME280;10487;53.320;8.672;2022-12-08T11:33:32;100305.34;;;1.12;65.49
20656;BME280;10487;53.320;8.672;2022-12-08T11:36:35;100291.25;;;1.13;65.20
20656;BME280;10487;53.320;8.672;2022-12-08T11:39:45;100294.75;;;1.14;65.52
20656;BME280;10487;53.320;8.672;2022-12-08T11:42:59;100298.31;;;1.13;65.35
20656;BME280;10487;53.320;8.672;2022-12-08T11:46:10;100291.25;;;1.13;65.28
20656;BME280;10487;53.320;8.672;2022-12-08T11:49:14;100296.53;;;1.13;65.65
20656;BME280;10487;53.320;8.672;2022-12-08T11:55:31;100294.94;;;1.09;65.40
20656;BME280;10487;53.320;8.672;2022-12-08T11:59:15;100292.13;;;1.54;67.34
20656;BME280;10487;53.320;8.672;2022-12-08T12:02:21;100290.94;;;2.00;66.26
20656;BME280;10487;53.320;8.672;2022-12-08T12:19:57;100286.47;;;1.63;65.38
20656;BME280;10487;53.320;8.672;2022-12-08T12:23:05;100285.75;;;1.60;65.42
20656;BME280;10487;53.320;8.672;2022-12-08T12:26:16;100282.31;;;1.58;65.35
20656;BME280;10487;53.320;8.672;2022-12-08T12:29:20;100281.53;;;1.56;65.57
20656;BME280;10487;53.320;8.672;2022-12-08T12:32:25;100276.28;;;1.56;65.50
20656;BME280;10487;53.320;8.672;2022-12-08T12:35:31;100278.06;;;1.55;65.44
20656;BME280;10487;53.320;8.672;2022-12-08T12:38:37;100284.28;;;1.52;65.75
20656;BME280;10487;53.320;8.672;2022-12-08T12:42:01;100284.47;;;1.49;65.54
20656;BME280;10487;53.320;8.672;2022-12-08T12:48:22;100288.97;;;1.46;65.69
20656;BME280;10487;53.320;8.672;2022-12-08T12:51:34;100282.84;;;1.45;65.59
20656;BME280;10487;53.320;8.672;2022-12-08T12:54:41;100281.09;;;1.46;65.41
20656;BME280;10487;53.320;8.672;2022-12-08T12:57:55;100281.94;;;1.46;65.69
20656;BME280;10487;53.320;8.672;2022-12-08T13:04:15;100280.22;;;1.45;65.26
20656;BME280;10487;53.320;8.672;2022-12-08T13:07:22;100283.00;;;1.42;65.18
20656;BME280;10487;53.320;8.672;2022-12-08T13:10:38;100282.19;;;1.40;65.59
20656;BME280;10487;53.320;8.672;2022-12-08T13:14:03;100287.53;;;1.39;65.52
20656;BME280;10487;53.320;8.672;2022-12-08T13:17:10;100287.53;;;1.39;65.50
20656;BME280;10487;53.320;8.672;2022-12-08T13:20:45;100281.38;;;1.40;65.72
20656;BME280;10487;53.320;8.672;2022-12-08T13:30:41;100289.53;;;2.11;67.40
20656;BME280;10487;53.320;8.672;2022-12-08T13:33:43;100280.53;;;2.53;66.57
20656;BME280;10487;53.320;8.672;2022-12-08T13:36:59;100288.16;;;2.59;65.90
20656;BME280;10487;53.320;8.672;2022-12-08T13:40:14;100288.22;;;2.57;65.64
20656;BME280;10487;53.320;8.672;2022-12-08T13:43:36;100295.50;;;2.52;65.56
20656;BME280;10487;53.320;8.672;2022-12-08T13:47:02;100287.09;;;2.44;65.44
20656;BME280;10487;53.320;8.672;2022-12-08T13:54:17;100303.63;;;2.29;65.34
20656;BME280;10487;53.320;8.672;2022-12-08T13:57:41;100300.50;;;2.21;65.31
20656;BME280;10487;53.320;8.672;2022-12-08T14:00:53;100304.34;;;2.14;65.09
20656;BME280;10487;53.320;8.672;2022-12-08T14:03:56;100305.38;;;2.10;65.27
20656;BME280;10487;53.320;8.672;2022-12-08T14:07:18;100301.19;;;2.06;65.32
20656;BME280;10487;53.320;8.672;2022-12-08T14:10:25;100307.44;;;2.03;65.33
20656;BME280;10487;53.320;8.672;2022-12-08T14:13:29;100310.28;;;1.99;65.41
20656;BME280;10487;53.320;8.672;2022-12-08T14:16:36;100308.66;;;1.96;65.32
20656;BME280;10487;53.320;8.672;2022-12-08T14:19:42;100313.19;;;1.93;65.28
20656;BME280;10487;53.320;8.672;2022-12-08T14:22:44;100313.41;;;1.88;65.31
20656;BME280;10487;53.320;8.672;2022-12-08T14:25:47;100317.94;;;1.85;64.98
20656;BME280;10487;53.320;8.672;2022-12-08T14:28:48;100320.78;;;1.80;65.20
20656;BME280;10487;53.320;8.672;2022-12-08T14:31:51;100320.06;;;1.77;65.00
20656;BME280;10487;53.320;8.672;2022-12-08T14:41:04;100325.00;;;1.64;64.99
20656;BME280;10487;53.320;8.672;2022-12-08T14:44:22;100325.22;;;1.60;64.97
20656;BME280;10487;53.320;8.672;2022-12-08T14:47:31;100331.50;;;1.56;65.03
20656;BME280;10487;53.320;8.672;2022-12-08T14:50:42;100342.22;;;1.51;65.16
20656;BME280;10487;53.320;8.672;2022-12-08T14:53:54;100338.34;;;1.60;65.92
20656;BME280;10487;53.320;8.672;2022-12-08T14:56:56;100338.25;;;2.20;66.96
20656;BME280;10487;53.320;8.672;2022-12-08T15:00:07;100335.94;;;2.51;65.96
20656;BME280;10487;53.320;8.672;2022-12-08T15:03:11;100333.34;;;2.50;64.99
20656;BME280;10487;53.320;8.672;2022-12-08T15:06:13;100340.84;;;2.40;64.87
20656;BME280;10487;53.320;8.672;2022-12-08T15:09:47;100341.47;;;2.27;64.96
20656;BME280;10487;53.320;8.672;2022-12-08T15:16:29;100341.44;;;1.89;64.68
20656;BME280;10487;53.320;8.672;2022-12-08T15:19:32;100343.88;;;1.74;65.04
20656;BME280;10487;53.320;8.672;2022-12-08T15:22:34;100351.34;;;1.63;64.75
20656;BME280;10487;53.320;8.672;2022-12-08T15:25:36;100354.47;;;1.52;65.10
20656;BME280;10487;53.320;8.672;2022-12-08T15:28:38;100357.41;;;1.44;65.00
20656;BME280;10487;53.320;8.672;2022-12-08T15:31:39;100362.13;;;1.36;64.75
20656;BME280;10487;53.320;8.672;2022-12-08T15:34:41;100360.81;;;1.26;65.08
20656;BME280;10487;53.320;8.672;2022-12-08T15:37:42;100356.72;;;1.19;64.85
20656;BME280;10487;53.320;8.672;2022-12-08T15:40:44;100361.38;;;1.13;64.92
20656;BME280;10487;53.320;8.672;2022-12-08T15:43:46;100369.44;;;1.08;64.77
20656;BME280;10487;53.320;8.672;2022-12-08T15:46:48;100363.56;;;1.02;64.63
20656;BME280;10487;53.320;8.672;2022-12-08T15:49:51;100363.88;;;0.94;65.07
20656;BME280;10487;53.320;8.672;2022-12-08T15:52:55;100365.84;;;0.89;64.67
20656;BME280;10487;53.320;8.672;2022-12-08T15:55:57;100366.91;;;0.83;64.94
20656;BME280;10487;53.320;8.672;2022-12-08T15:59:22;100361.91;;;0.77;64.59
20656;BME280;10487;53.320;8.672;2022-12-08T16:02:24;100365.63;;;0.72;64.58
20656;BME280;10487;53.320;8.672;2022-12-08T16:05:29;100369.28;;;0.68;64.78
20656;BME280;10487;53.320;8.672;2022-12-08T16:08:51;100370.25;;;0.65;64.87
20656;BME280;10487;53.320;8.672;2022-12-08T16:12:17;100367.75;;;0.62;64.77
20656;BME280;10487;53.320;8.672;2022-12-08T16:16:00;100380.22;;;0.56;64.52
20656;BME280;10487;53.320;8.672;2022-12-08T16:19:02;100381.28;;;0.52;64.66
20656;BME280;10487;53.320;8.672;2022-12-08T16:22:04;100383.13;;;0.50;64.76
20656;BME280;10487;53.320;8.672;2022-12-08T16:25:26;100390.19;;;0.48;64.71
20656;BME280;10487;53.320;8.672;2022-12-08T16:28:46;100386.03;;;0.42;64.36
20656;BME280;10487;53.320;8.672;2022-12-08T16:31:55;100391.44;;;0.38;64.32
20656;BME280;10487;53.320;8.672;2022-12-08T16:34:57;100390.75;;;0.33;64.56
20656;BME280;10487;53.320;8.672;2022-12-08T16:37:58;100390.88;;;0.30;64.43
20656;BME280;10487;53.320;8.672;2022-12-08T16:41:00;100390.13;;;0.26;64.63
20656;BME280;10487;53.320;8.672;2022-12-08T16:44:20;100395.09;;;0.34;65.04
20656;BME280;10487;53.320;8.672;2022-12-08T16:47:22;100389.03;;;0.78;65.83
20656;BME280;10487;53.320;8.672;2022-12-08T16:50:29;100393.75;;;1.35;66.28
20656;BME280;10487;53.320;8.672;2022-12-08T16:53:31;100398.97;;;1.77;66.23
20656;BME280;10487;53.320;8.672;2022-12-08T16:56:32;100403.44;;;1.95;65.33
20656;BME280;10487;53.320;8.672;2022-12-08T16:59:34;100399.41;;;2.27;65.60
20656;BME280;10487;53.320;8.672;2022-12-08T17:02:37;100403.94;;;2.23;64.98
20656;BME280;10487;53.320;8.672;2022-12-08T17:05:39;100404.75;;;2.05;64.37
20656;BME280;10487;53.320;8.672;2022-12-08T17:08:42;100410.00;;;1.85;64.19
20656;BME280;10487;53.320;8.672;2022-12-08T17:11:44;100411.84;;;1.63;64.17
20656;BME280;10487;53.320;8.672;2022-12-08T17:14:46;100412.66;;;1.43;64.06
20656;BME280;10487;53.320;8.672;2022-12-08T17:17:47;100404.81;;;1.21;64.13
20656;BME280;10487;53.320;8.672;2022-12-08T17:20:49;100407.47;;;1.00;64.44
20656;BME280;10487;53.320;8.672;2022-12-08T17:23:50;100411.63;;;0.82;64.19
20656;BME280;10487;53.320;8.672;2022-12-08T17:26:52;100411.31;;;0.68;64.29
20656;BME280;10487;53.320;8.672;2022-12-08T17:29:53;100406.56;;;0.54;64.32
20656;BME280;10487;53.320;8.672;2022-12-08T17:32:55;100411.41;;;0.42;64.72
20656;BME280;10487;53.320;8.672;2022-12-08T17:35:57;100416.06;;;0.34;64.64
20656;BME280;10487;53.320;8.672;2022-12-08T17:38:59;100422.56;;;0.23;64.64
20656;BME280;10487;53.320;8.672;2022-12-08T17:42:01;100417.66;;;0.14;64.42
20656;BME280;10487;53.320;8.672;2022-12-08T17:45:04;100428.81;;;-0.04;64.18
20656;BME280;10487;53.320;8.672;2022-12-08T17:48:07;100423.16;;;-0.16;64.40
20656;BME280;10487;53.320;8.672;2022-12-08T17:51:08;100422.50;;;-0.23;64.61
20656;BME280;10487;53.320;8.672;2022-12-08T17:54:10;100416.78;;;-0.34;64.51
20656;BME280;10487;53.320;8.672;2022-12-08T17:57:12;100416.06;;;-0.39;64.64